Time;durP1;ratioP1;P1;durP2;ratioP2;P2;SDS_P1;SDS_P2;PMS_P1;PMS_P2;Temp;Humidity;BMP_temperature;BMP_pressure;BME280_temperature;BME280_humidity;BME280_pressure;Samples;Min_cycle;Max_cycle;Signal;HPM_P1;HPM_P2
2022/09/05 00:00:46;;;;;;;2.20;2.00;;;20.50;50.50;;;;;;5980490;23;20163;-87
2022/09/05 00:03:24;;;;;;;2.25;1.90;;;20.50;50.40;;;;;;5957256;24;20161;-87
2022/09/05 00:06:05;;;;;;;2.20;2.00;;;20.50;50.50;;;;;;6039208;23;20161;-87
2022/09/05 00:08:52;;;;;;;2.13;1.92;;;20.50;50.50;;;;;;6020651;23;20506;-87
2022/09/05 00:11:39;;;;;;;2.50;2.30;;;20.40;50.40;;;;;;6019627;23;20165;-87
2022/09/05 00:14:37;;;;;;;2.38;2.17;;;20.50;50.50;;;;;;6008584;23;20630;-87
2022/09/05 00:17:19;;;;;;;2.08;1.88;;;20.50;50.50;;;;;;6009231;23;20194;-87
2022/09/05 00:20:18;;;;;;;2.38;1.90;;;20.40;50.40;;;;;;5940017;23;20508;-87
2022/09/05 00:23:00;;;;;;;2.50;1.85;;;20.50;50.50;;;;;;5970083;24;20196;-86
2022/09/05 00:25:52;;;;;;;2.20;2.00;;;20.50;51.10;;;;;;5982839;23;20508;-87
2022/09/05 00:28:46;;;;;;;2.88;1.88;;;20.50;50.40;;;;;;5992810;23;20611;-87
2022/09/05 00:31:46;;;;;;;2.40;2.20;;;20.50;50.50;;;;;;6036987;23;20158;-87
2022/09/05 00:34:51;;;;;;;2.83;2.20;;;20.50;50.50;;;;;;6013167;23;20162;-86
2022/09/05 00:37:35;;;;;;;2.80;2.00;;;20.50;50.50;;;;;;6036906;23;20558;-87
2022/09/05 00:40:17;;;;;;;2.42;2.22;;;20.50;50.50;;;;;;5965789;23;20277;-86
2022/09/05 00:42:48;;;;;;;2.03;1.88;;;20.50;50.50;;;;;;5985290;23;20165;-86
2022/09/05 00:45:24;;;;;;;2.38;2.17;;;20.40;50.50;;;;;;5939281;23;20255;-87
2022/09/05 00:48:06;;;;;;;2.30;2.10;;;20.40;50.50;;;;;;5985716;23;20619;-87
2022/09/05 00:51:21;;;;;;;2.22;1.98;;;20.40;50.50;;;;;;6022419;23;20157;-87
2022/09/05 00:54:04;;;;;;;1.85;1.75;;;20.40;50.50;;;;;;5999646;23;20161;-87
2022/09/05 00:56:56;;;;;;;2.30;2.10;;;20.40;50.50;;;;;;6065563;23;20259;-87
2022/09/05 00:59:55;;;;;;;2.20;2.00;;;20.40;50.60;;;;;;6042332;23;20637;-86
2022/09/05 01:02:40;;;;;;;2.10;1.90;;;20.40;50.50;;;;;;5977534;23;20626;-87
2022/09/05 01:05:30;;;;;;;2.20;2.00;;;20.40;50.50;;;;;;5980385;24;20156;-87
2022/09/05 01:08:12;;;;;;;2.03;1.85;;;20.40;50.50;;;;;;5961204;24;20304;-86
2022/09/05 01:11:20;;;;;;;2.30;2.08;;;20.40;50.60;;;;;;5952664;24;20284;-87
2022/09/05 01:14:02;;;;;;;1.90;1.80;;;20.40;50.60;;;;;;5980657;24;20173;-87
2022/09/05 01:16:55;;;;;;;2.00;1.80;;;20.40;50.60;;;;;;5938056;23;20242;-87
2022/09/05 01:19:36;;;;;;;2.20;2.00;;;20.40;50.60;;;;;;6008669;23;20147;-87
2022/09/05 01:22:29;;;;;;;2.13;1.92;;;20.40;50.60;;;;;;6007084;23;20163;-87
2022/09/05 01:25:29;;;;;;;2.20;2.00;;;20.40;50.70;;;;;;5980173;24;20230;-87
2022/09/05 01:28:17;;;;;;;2.35;2.10;;;20.40;50.70;;;;;;5947903;24;20174;-87
2022/09/05 01:31:06;;;;;;;1.80;1.70;;;20.40;50.70;;;;;;5897424;24;20175;-87
2022/09/05 01:33:54;;;;;;;2.10;1.77;;;20.40;50.60;;;;;;5875238;24;20165;-87
2022/09/05 01:36:56;;;;;;;2.40;2.20;;;20.40;50.60;;;;;;5870069;24;20166;-87
2022/09/05 01:39:54;;;;;;;2.10;1.90;;;20.40;50.70;;;;;;5823207;24;20162;-86
2022/09/05 01:42:42;;;;;;;2.65;1.92;;;20.40;50.70;;;;;;5821314;24;20174;-87
2022/09/05 01:45:25;;;;;;;2.13;1.95;;;20.40;50.70;;;;;;5844997;24;20167;-87
2022/09/05 01:48:07;;;;;;;2.63;2.08;;;20.40;50.70;;;;;;5860155;24;20229;-87
2022/09/05 01:51:00;;;;;;;2.15;1.95;;;20.40;50.60;;;;;;5892302;24;20603;-87
2022/09/05 01:53:45;;;;;;;2.85;1.95;;;20.40;50.70;;;;;;5917344;24;20176;-87
2022/09/05 01:56:43;;;;;;;2.20;2.00;;;20.40;50.70;;;;;;5921841;24;20161;-87
2022/09/05 01:59:27;;;;;;;2.10;1.90;;;20.40;50.70;;;;;;5920255;24;20163;-87
2022/09/05 02:02:22;;;;;;;2.67;2.10;;;20.30;50.70;;;;;;5976895;24;20156;-87
2022/09/05 02:05:27;;;;;;;2.17;1.98;;;20.40;50.70;;;;;;5934845;24;20516;-87
2022/09/05 02:08:30;;;;;;;2.10;1.95;;;20.40;50.80;;;;;;5948471;24;20170;-87
2022/09/05 02:11:06;;;;;;;2.13;1.90;;;20.40;50.80;;;;;;6005134;23;20166;-87
2022/09/05 02:13:52;;;;;;;2.28;2.08;;;20.40;50.80;;;;;;5985772;23;20249;-87
2022/09/05 02:16:43;;;;;;;2.00;1.90;;;20.30;50.80;;;;;;6055800;23;20162;-87
2022/09/05 02:19:22;;;;;;;2.17;1.98;;;20.30;50.80;;;;;;6010808;23;20602;-87
2022/09/05 02:22:00;;;;;;;2.38;1.90;;;20.30;50.80;;;;;;6015250;23;20194;-87
2022/09/05 02:24:47;;;;;;;2.20;1.98;;;20.30;50.80;;;;;;5980511;24;20194;-87
2022/09/05 02:27:29;;;;;;;2.13;1.98;;;20.40;50.80;;;;;;5958361;24;20214;-87
2022/09/05 02:30:20;;;;;;;2.10;1.83;;;20.30;50.80;;;;;;5958373;24;20206;-87
2022/09/05 02:33:11;;;;;;;2.30;2.10;;;20.30;50.90;;;;;;5971063;23;20177;-88
2022/09/05 02:35:44;;;;;;;2.30;1.98;;;20.30;50.90;;;;;;5999813;23;20188;-87
2022/09/05 02:38:27;;;;;;;2.10;1.90;;;20.30;50.80;;;;;;6012685;23;20210;-86
2022/09/05 02:41:01;;;;;;;2.30;2.10;;;20.30;50.80;;;;;;6008934;23;20282;-87
2022/09/05 02:43:43;;;;;;;4.53;2.00;;;20.40;50.90;;;;;;5986263;23;20159;-87
2022/09/05 02:46:33;;;;;;;2.13;1.90;;;20.30;50.90;;;;;;5993601;23;20221;-87
2022/09/05 02:49:30;;;;;;;1.95;1.77;;;20.30;50.90;;;;;;6014115;23;20169;-87
2022/09/05 02:52:23;;;;;;;2.97;2.00;;;20.30;50.90;;;;;;6009362;23;20163;-87
2022/09/05 02:54:54;;;;;;;2.78;2.15;;;20.30;50.90;;;;;;5897004;24;20207;-86
2022/09/05 02:57:55;;;;;;;1.67;1.58;;;20.30;50.90;;;;;;5899298;24;20252;-87
2022/09/05 03:00:28;;;;;;;1.88;1.75;;;20.40;51.00;;;;;;5976203;24;20164;-87
2022/09/05 03:03:16;;;;;;;2.03;1.83;;;20.30;50.90;;;;;;5953160;24;20168;-87
2022/09/05 03:05:55;;;;;;;2.15;1.95;;;20.30;51.00;;;;;;5953068;24;20159;-87
2022/09/05 03:08:44;;;;;;;2.15;1.95;;;20.30;51.00;;;;;;5953712;24;20643;-87
2022/09/05 03:11:46;;;;;;;2.10;1.90;;;20.30;51.00;;;;;;5930458;24;20719;-87
2022/09/05 03:14:50;;;;;;;2.20;2.00;;;20.30;50.90;;;;;;5915347;24;20186;-87
2022/09/05 03:17:36;;;;;;;2.05;1.85;;;20.30;50.90;;;;;;5961172;23;20190;-87
2022/09/05 03:20:40;;;;;;;2.30;2.10;;;20.30;51.00;;;;;;6067553;23;20161;-87
2022/09/05 03:23:44;;;;;;;2.47;1.95;;;20.30;51.00;;;;;;6066151;23;20157;-86
2022/09/05 03:26:38;;;;;;;2.20;2.00;;;20.30;51.00;;;;;;6040190;23;20236;-87
2022/09/05 03:29:31;;;;;;;1.98;1.83;;;20.30;51.00;;;;;;6065834;23;20168;-86
2022/09/05 03:32:37;;;;;;;2.58;2.03;;;20.30;51.10;;;;;;6089741;23;20588;-87
2022/09/05 03:36:02;;;;;;;2.40;2.05;;;20.30;51.10;;;;;;6037284;23;20204;-86
2022/09/05 03:38:57;;;;;;;2.20;2.00;;;20.30;51.00;;;;;;6003844;23;20198;-87
2022/09/05 03:41:40;;;;;;;2.15;1.95;;;20.30;51.10;;;;;;6008915;23;20273;-86
2022/09/05 03:44:54;;;;;;;1.80;1.70;;;20.30;51.10;;;;;;5985753;23;20723;-87
2022/09/05 03:47:56;;;;;;;1.73;1.60;;;20.30;51.10;;;;;;6009012;23;20167;-87
2022/09/05 03:50:36;;;;;;;2.03;1.83;;;20.30;51.20;;;;;;5977992;23;20157;-87
2022/09/05 03:53:17;;;;;;;2.10;1.90;;;20.30;51.10;;;;;;5990130;23;20188;-86
2022/09/05 03:56:15;;;;;;;2.33;2.00;;;20.20;51.00;;;;;;6014295;23;20189;-86
2022/09/05 03:59:05;;;;;;;2.20;1.90;;;20.20;51.00;;;;;;5999340;23;20333;-87
2022/09/05 04:01:36;;;;;;;2.30;2.10;;;20.30;51.10;;;;;;6047168;23;20588;-87
2022/09/05 04:04:28;;;;;;;2.15;1.95;;;20.20;51.00;;;;;;5985207;23;20167;-87
2022/09/05 04:06:59;;;;;;;2.00;1.80;;;20.20;51.10;;;;;;5986214;23;20199;-87
2022/09/05 04:09:38;;;;;;;2.65;1.75;;;20.20;51.10;;;;;;5926437;24;20174;-87
2022/09/05 04:12:18;;;;;;;2.20;2.00;;;20.30;51.20;;;;;;5913814;24;20167;-87
2022/09/05 04:15:16;;;;;;;2.00;1.80;;;20.30;51.20;;;;;;5935032;24;20554;-87
2022/09/05 04:17:58;;;;;;;1.83;1.67;;;20.30;51.20;;;;;;5917350;24;20194;-87
2022/09/05 04:20:38;;;;;;;2.22;2.03;;;20.20;51.00;;;;;;5875472;24;20317;-86
2022/09/05 04:23:24;;;;;;;1.75;1.65;;;20.20;51.00;;;;;;5875012;24;20291;-87
2022/09/05 04:25:58;;;;;;;2.13;1.92;;;20.30;51.20;;;;;;5875171;24;20211;-87
2022/09/05 04:29:01;;;;;;;1.90;1.70;;;20.30;51.20;;;;;;5911426;24;20166;-87
2022/09/05 04:31:51;;;;;;;2.10;1.90;;;20.20;51.10;;;;;;5952392;24;20167;-87
2022/09/05 04:34:46;;;;;;;2.00;1.80;;;20.30;51.10;;;;;;5870420;24;20191;-87
2022/09/05 04:37:41;;;;;;;2.22;1.83;;;20.30;51.10;;;;;;5870812;24;20273;-87
2022/09/05 04:40:46;;;;;;;2.05;1.70;;;20.30;51.10;;;;;;5838977;24;20645;-87
2022/09/05 04:43:23;;;;;;;1.95;1.75;;;20.30;51.00;;;;;;5870741;24;20158;-87
2022/09/05 04:46:20;;;;;;;1.98;1.77;;;20.30;51.10;;;;;;5869620;24;20234;-87
2022/09/05 04:48:58;;;;;;;1.70;1.60;;;20.20;51.00;;;;;;5866415;24;20166;-87
2022/09/05 04:51:50;;;;;;;1.95;1.75;;;20.20;51.00;;;;;;5897320;24;20172;-87
2022/09/05 04:54:27;;;;;;;1.80;1.70;;;20.20;51.10;;;;;;5883663;24;20242;-87
2022/09/05 04:57:00;;;;;;;2.08;1.88;;;20.20;51.10;;;;;;5874933;24;20315;-87
2022/09/05 04:59:44;;;;;;;2.08;1.80;;;20.20;51.00;;;;;;5821399;24;20167;-87
2022/09/05 05:02:20;;;;;;;2.80;1.52;;;20.20;50.90;;;;;;5754985;24;20267;-87
2022/09/05 05:05:27;;;;;;;1.73;1.63;;;20.30;50.70;;;;;;5778781;24;20169;-87
2022/09/05 05:08:08;;;;;;;1.50;1.40;;;20.20;50.60;;;;;;5819465;24;20166;-87
2022/09/05 05:10:56;;;;;;;2.00;1.80;;;20.20;50.60;;;;;;5870545;24;20161;-87
2022/09/05 05:13:44;;;;;;;1.70;1.60;;;20.20;50.70;;;;;;5865578;24;20551;-87
2022/09/05 05:16:45;;;;;;;2.03;1.60;;;20.20;50.70;;;;;;5843494;24;20228;-88
2022/09/05 05:19:30;;;;;;;1.58;1.48;;;20.10;50.70;;;;;;5796752;24;20175;-89
2022/09/05 05:22:05;;;;;;;1.85;1.70;;;20.10;50.80;;;;;;5882414;24;20157;-87
2022/09/05 05:24:43;;;;;;;1.40;1.30;;;20.10;50.80;;;;;;5871810;24;20161;-87
2022/09/05 05:27:39;;;;;;;1.42;1.33;;;20.10;50.90;;;;;;5850309;24;20198;-88
2022/09/05 05:30:06;;;;;;;1.50;1.40;;;20.00;51.00;;;;;;5791935;24;20168;-87
2022/09/05 05:32:34;;;;;;;1.23;1.13;;;20.00;51.00;;;;;;5820691;24;20168;-88
2022/09/05 05:35:16;;;;;;;1.50;1.20;;;20.00;51.10;;;;;;5850093;24;20227;-87
2022/09/05 05:37:47;;;;;;;1.27;1.17;;;20.10;51.10;;;;;;5882682;24;20220;-87
2022/09/05 05:40:29;;;;;;;1.50;1.40;;;20.10;51.00;;;;;;5878978;24;20303;-87
2022/09/05 05:43:13;;;;;;;1.20;1.10;;;20.10;51.20;;;;;;5899167;24;20248;-88
2022/09/05 05:45:58;;;;;;;1.40;1.30;;;20.10;51.30;;;;;;5903714;24;20157;-87
2022/09/05 05:51:52;;;;;;;1.48;1.38;;;20.10;51.30;;;;;;5765668;24;20184;-87
2022/09/05 05:54:48;;;;;;;1.55;1.25;;;20.10;51.40;;;;;;5756685;24;20255;-88
2022/09/05 05:57:46;;;;;;;1.40;1.30;;;20.10;51.40;;;;;;5735074;24;20275;-87
2022/09/05 06:00:29;;;;;;;1.23;1.13;;;20.10;51.40;;;;;;5714323;24;20193;-88
2022/09/05 06:03:08;;;;;;;1.40;1.30;;;20.10;51.40;;;;;;5663484;25;20191;-88
2022/09/05 06:06:06;;;;;;;1.20;1.10;;;20.10;51.40;;;;;;5643100;25;20673;-87
2022/09/05 06:09:00;;;;;;;1.30;1.20;;;20.10;51.30;;;;;;5644627;25;20226;-87
2022/09/05 06:11:48;;;;;;;1.20;1.10;;;20.10;51.40;;;;;;5659135;25;20170;-87
2022/09/05 06:14:57;;;;;;;;;;;;;;;;;;;;;
2022/09/05 06:18:23;;;;;;;1.33;1.23;;;20.10;52.00;;;;;;5687319;25;20269;-88
2022/09/05 06:21:33;;;;;;;1.58;1.33;;;20.10;53.10;;;;;;5701809;24;20166;-87
2022/09/05 06:24:43;;;;;;;;;;;;;;;;;;;;;
2022/09/05 06:27:43;;;;;;;1.20;1.10;;;20.20;52.40;;;;;;6003510;23;20249;-88
2022/09/05 06:30:19;;;;;;;1.30;1.20;;;20.20;52.10;;;;;;5930234;24;20175;-89
2022/09/05 06:33:37;;;;;;;1.30;1.20;;;20.30;52.00;;;;;;5958856;24;20191;-89
2022/09/05 06:41:06;;;;;;;1.20;1.10;;;20.30;51.70;;;;;;5931608;24;20162;-89
2022/09/05 06:47:05;;;;;;;1.23;1.13;;;20.50;52.00;;;;;;5876994;24;20203;-88
2022/09/05 06:49:52;;;;;;;1.10;1.00;;;20.50;50.90;;;;;;5853996;24;20166;-86
2022/09/05 06:52:50;;;;;;;1.10;1.00;;;20.40;51.20;;;;;;5881554;24;20206;-87
2022/09/05 06:55:49;;;;;;;1.15;1.05;;;20.40;51.10;;;;;;5870659;24;20180;-87
2022/09/05 06:58:50;;;;;;;1.50;0.98;;;20.40;51.30;;;;;;5854013;24;20193;-86
2022/09/05 07:01:21;;;;;;;1.77;0.90;;;20.40;51.30;;;;;;5875080;24;20158;-88
2022/09/05 07:04:24;;;;;;;1.30;1.20;;;20.40;51.40;;;;;;5873879;24;20257;-87
2022/09/05 07:07:18;;;;;;;1.17;1.08;;;20.40;51.40;;;;;;5880088;24;20175;-88
2022/09/05 07:10:12;;;;;;;1.10;1.00;;;20.50;51.40;;;;;;5906014;24;20188;-87
2022/09/05 07:12:48;;;;;;;1.25;1.10;;;20.40;51.20;;;;;;5904676;24;20175;-86
2022/09/05 07:18:35;;;;;;;1.25;1.15;;;20.50;51.60;;;;;;5980880;24;20627;-86
2022/09/05 07:21:04;;;;;;;1.20;1.10;;;20.50;50.90;;;;;;5960917;24;20155;-87
2022/09/05 07:23:55;;;;;;;1.10;1.00;;;20.50;51.20;;;;;;5945164;23;20204;-87
2022/09/05 07:26:47;;;;;;;1.45;1.20;;;20.50;51.30;;;;;;5993763;23;20245;-86
2022/09/05 07:29:19;;;;;;;1.10;1.00;;;20.50;51.10;;;;;;6000962;23;20165;-85
2022/09/05 07:32:04;;;;;;;1.23;0.93;;;20.50;51.20;;;;;;5937236;24;20172;-88
2022/09/05 07:41:25;;;;;;;1.08;0.93;;;20.70;50.80;;;;;;5885710;24;20212;-90
2022/09/05 07:44:35;;;;;;;1.85;0.98;;;20.70;50.80;;;;;;5828810;24;20172;-89
2022/09/05 07:47:23;;;;;;;0.95;0.93;;;20.70;50.80;;;;;;5818202;24;20168;-87
2022/09/05 07:50:10;;;;;;;;;;;;;;;;;;;;;
2022/09/05 08:20:52;;;;;;;;;;;;;;;;;;;;;
2022/09/05 08:27:24;;;;;;;;;;;;;;;;;;;;;
2022/09/05 10:05:13;;;;;;;12.50;1.73;;;20.90;49.70;;;;;;6159518;23;20219;-89
2022/09/05 10:12:14;;;;;;;;;;;;;;;;;;;;;
2022/09/05 10:25:46;;;;;;;12.50;1.80;;;20.90;48.00;;;;;;5873908;24;20195;-89
2022/09/05 10:28:49;;;;;;;7.78;1.40;;;20.90;48.10;;;;;;5796066;24;20167;-88
2022/09/05 10:31:19;;;;;;;10.20;1.70;;;20.90;47.60;;;;;;5818415;24;20178;-88
2022/09/05 10:34:10;;;;;;;6.10;1.23;;;20.80;47.40;;;;;;5748543;24;20187;-89
2022/09/05 10:36:43;;;;;;;11.43;1.80;;;20.90;48.10;;;;;;5774669;24;20167;-89
2022/09/05 10:39:34;;;;;;;8.60;1.50;;;20.90;47.50;;;;;;5794076;24;20177;-89
2022/09/05 10:42:24;;;;;;;8.68;1.35;;;20.90;47.40;;;;;;5797973;24;20641;-89
2022/09/05 10:44:56;;;;;;;5.15;1.23;;;20.90;47.00;;;;;;5762186;24;20169;-88
2022/09/05 10:47:35;;;;;;;5.15;1.08;;;20.90;46.70;;;;;;5762476;24;20189;-88
2022/09/05 10:50:50;;;;;;;;;;;;;;;;;;;;;
2022/09/05 10:53:49;;;;;;;6.20;1.30;;;20.90;47.00;;;;;;5778712;24;20199;-89
2022/09/05 10:56:31;;;;;;;7.72;1.45;;;20.80;47.20;;;;;;5870906;24;20165;-88
2022/09/05 10:59:09;;;;;;;8.55;1.42;;;20.70;47.20;;;;;;5889007;24;20265;-90
2022/09/05 11:06:19;;;;;;;6.03;0.95;;;20.80;47.00;;;;;;5866554;24;20308;-89
2022/09/05 11:13:00;;;;;;;9.50;1.30;;;20.90;46.40;;;;;;5792031;24;20171;-88
2022/09/05 11:15:44;;;;;;;6.00;0.98;;;20.90;46.50;;;;;;5839849;24;20171;-87
2022/09/05 11:19:02;;;;;;;3.60;1.27;;;20.90;47.10;;;;;;5842761;24;20198;-88
2022/09/05 11:21:59;;;;;;;3.15;0.88;;;20.90;46.30;;;;;;5861272;24;20228;-86
2022/09/05 11:24:37;;;;;;;4.90;1.10;;;20.90;46.10;;;;;;5799104;24;20207;-86
2022/09/05 11:27:20;;;;;;;3.22;0.80;;;20.90;46.30;;;;;;5866927;24;20173;-85
2022/09/05 11:29:47;;;;;;;5.20;1.23;;;21.00;46.70;;;;;;5844418;24;20163;-86
2022/09/05 11:32:41;;;;;;;6.60;0.90;;;21.00;46.40;;;;;;5845745;24;20278;-87
2022/09/05 11:35:24;;;;;;;5.05;0.88;;;21.00;45.80;;;;;;5821190;24;20171;-88
2022/09/05 11:38:22;;;;;;;4.25;0.98;;;20.90;45.60;;;;;;5823335;24;20221;-87
2022/09/05 11:41:10;;;;;;;7.00;1.10;;;20.90;45.50;;;;;;5876893;24;20510;-85
2022/09/05 11:44:04;;;;;;;5.85;0.90;;;20.90;46.10;;;;;;6010453;23;20159;-85
2022/09/05 11:46:45;;;;;;;3.10;1.10;;;20.80;45.90;;;;;;6014107;23;20210;-85
2022/09/05 11:49:34;;;;;;;6.20;1.10;;;20.80;45.70;;;;;;6080485;23;20152;-84
2022/09/05 11:52:31;;;;;;;2.97;0.80;;;20.80;45.50;;;;;;6107034;23;20588;-84
2022/09/05 11:55:24;;;;;;;2.05;1.15;;;20.80;45.30;;;;;;6083070;23;20160;-84
2022/09/05 11:58:20;;;;;;;4.45;1.00;;;20.80;45.40;;;;;;6102623;23;20187;-86
2022/09/05 12:00:50;;;;;;;3.10;1.20;;;20.70;45.40;;;;;;6104293;23;20159;-87
2022/09/05 12:03:48;;;;;;;2.70;1.10;;;20.70;45.50;;;;;;6103515;23;20144;-86
2022/09/05 12:06:39;;;;;;;4.28;1.00;;;20.70;45.50;;;;;;6124311;23;20255;-85
2022/09/05 12:09:40;;;;;;;2.72;0.88;;;20.70;45.30;;;;;;6059150;23;20243;-85
2022/09/05 12:12:28;;;;;;;1.88;0.90;;;20.70;45.30;;;;;;6101856;23;20160;-86
2022/09/05 12:15:20;;;;;;;1.73;0.90;;;20.70;45.20;;;;;;6102326;23;20128;-84
2022/09/05 12:18:10;;;;;;;7.32;0.80;;;20.70;45.00;;;;;;6083225;23;20179;-85
2022/09/05 12:20:57;;;;;;;1.63;0.80;;;20.70;44.90;;;;;;6104554;23;20144;-84
2022/09/05 12:23:32;;;;;;;2.15;0.80;;;20.70;44.90;;;;;;6105230;23;20131;-84
2022/09/05 12:26:09;;;;;;;1.95;0.80;;;20.70;44.80;;;;;;6016218;23;20643;-84
2022/09/05 12:28:50;;;;;;;3.08;0.90;;;20.70;44.50;;;;;;6040363;23;20168;-85
2022/09/05 12:31:26;;;;;;;1.00;0.90;;;20.70;44.40;;;;;;6017057;23;20162;-86
2022/09/05 12:33:52;;;;;;;2.78;1.10;;;20.60;44.60;;;;;;5969706;23;20165;-84
2022/09/05 12:36:34;;;;;;;2.88;0.80;;;20.60;44.50;;;;;;6014869;23;20173;-85
2022/09/05 12:39:20;;;;;;;0.80;0.70;;;20.60;44.60;;;;;;6013778;23;20666;-84
2022/09/05 12:41:59;;;;;;;2.22;0.90;;;20.60;44.50;;;;;;6038349;23;20157;-86
2022/09/05 12:44:38;;;;;;;1.77;0.73;;;20.60;44.60;;;;;;6036114;23;20255;-85
2022/09/05 12:47:06;;;;;;;2.15;0.80;;;20.70;44.40;;;;;;6035817;23;20609;-85
2022/09/05 12:49:39;;;;;;;3.58;0.80;;;20.70;44.70;;;;;;6013467;23;20153;-84
2022/09/05 12:52:09;;;;;;;0.82;0.70;;;20.60;44.50;;;;;;6013679;23;20193;-85
2022/09/05 12:54:44;;;;;;;4.07;0.93;;;20.60;44.50;;;;;;6013108;23;20184;-86
2022/09/05 12:57:26;;;;;;;2.30;0.80;;;20.60;44.40;;;;;;6053227;23;20556;-85
2022/09/05 12:59:52;;;;;;;1.77;0.90;;;20.60;44.40;;;;;;6077078;23;20194;-84
2022/09/05 13:02:25;;;;;;;2.75;0.85;;;20.70;44.40;;;;;;6053443;23;20576;-84
2022/09/05 13:04:56;;;;;;;2.20;0.73;;;20.60;44.10;;;;;;6031970;23;20487;-85
2022/09/05 13:07:34;;;;;;;4.35;1.10;;;20.60;44.10;;;;;;6106500;23;20136;-85
2022/09/05 13:10:14;;;;;;;3.50;0.82;;;20.60;44.10;;;;;;6049912;23;20153;-85
2022/09/05 13:12:54;;;;;;;6.25;1.30;;;20.60;44.10;;;;;;6070271;23;20165;-85
2022/09/05 13:15:26;;;;;;;2.17;1.08;;;20.60;44.10;;;;;;6048213;23;20156;-85
2022/09/05 13:18:01;;;;;;;1.13;0.70;;;20.60;44.20;;;;;;6070549;23;20276;-86
2022/09/05 13:20:35;;;;;;;2.65;0.90;;;20.60;44.10;;;;;;6095764;23;20516;-89
2022/09/05 13:27:12;;;;;;;6.50;1.00;;;20.70;44.50;;;;;;6007386;23;20647;-86
2022/09/05 13:29:52;;;;;;;2.03;1.00;;;20.80;45.30;;;;;;5944737;23;20272;-88
2022/09/05 13:33:18;;;;;;;4.78;1.30;;;20.90;45.60;;;;;;6008933;23;20147;-87
2022/09/05 13:35:31;;;;;;;5.13;1.13;;;20.90;45.90;;;;;;5941220;23;20170;-88
2022/09/05 13:38:14;;;;;;;5.90;1.25;;;21.00;45.40;;;;;;5917880;23;20187;-87
2022/09/05 13:40:53;;;;;;;3.45;1.00;;;21.00;45.00;;;;;;5955363;23;20168;-87
2022/09/05 13:43:31;;;;;;;5.18;1.05;;;21.00;44.80;;;;;;6015475;23;20158;-88
2022/09/05 13:46:17;;;;;;;4.32;1.10;;;21.00;45.10;;;;;;5910467;24;21861;-89
2022/09/05 13:48:54;;;;;;;2.05;0.90;;;21.00;44.90;;;;;;5865217;24;20514;-88
2022/09/05 13:51:33;;;;;;;1.88;1.02;;;21.00;44.60;;;;;;5887664;24;20170;-87
2022/09/05 13:55:01;;;;;;;2.85;0.90;;;20.90;45.00;;;;;;5864698;24;20192;-87
2022/09/05 13:57:39;;;;;;;3.90;1.02;;;21.00;44.70;;;;;;5952544;24;20184;-88
2022/09/05 14:00:46;;;;;;;3.20;0.90;;;21.00;44.90;;;;;;5933448;24;20232;-87
2022/09/05 14:03:36;;;;;;;3.03;0.95;;;21.00;45.00;;;;;;5965099;23;20165;-87
2022/09/05 14:06:22;;;;;;;2.08;1.00;;;21.00;45.10;;;;;;6031222;23;20671;-87
2022/09/05 14:09:14;;;;;;;2.00;0.70;;;21.00;45.00;;;;;;5953315;23;20162;-86
2022/09/05 14:12:10;;;;;;;2.05;0.93;;;20.90;44.60;;;;;;6108814;23;20253;-86
2022/09/05 14:15:13;;;;;;;1.95;0.80;;;21.00;44.60;;;;;;6056952;23;20244;-87
2022/09/05 14:18:03;;;;;;;2.08;0.70;;;21.00;45.00;;;;;;5990231;23;20205;-84
2022/09/05 14:23:26;;;;;;;4.60;1.02;;;21.00;44.90;;;;;;5982515;24;20208;-84
2022/09/05 14:26:05;;;;;;;5.35;1.13;;;21.00;44.60;;;;;;5905387;24;20297;-84
2022/09/05 14:28:57;;;;;;;4.50;1.20;;;21.00;45.50;;;;;;5899818;24;20215;-85
2022/09/05 14:31:31;;;;;;;4.28;1.17;;;21.00;45.70;;;;;;5855065;24;20172;-83
2022/09/05 14:34:16;;;;;;;9.13;1.38;;;21.00;45.50;;;;;;5853345;24;20180;-84
2022/09/05 14:36:54;;;;;;;6.60;1.20;;;21.10;46.20;;;;;;5854953;24;20172;-84
2022/09/05 14:39:51;;;;;;;6.07;1.65;;;21.10;46.10;;;;;;5854582;24;20223;-84
2022/09/05 14:42:31;;;;;;;12.10;1.50;;;21.20;46.00;;;;;;5874342;24;20244;-83
2022/09/05 14:45:35;;;;;;;10.25;1.40;;;21.10;45.80;;;;;;5889591;24;20166;-86
2022/09/05 14:48:48;;;;;;;8.43;1.52;;;21.10;46.30;;;;;;5878953;24;20443;-83
2022/09/05 14:51:45;;;;;;;10.25;1.60;;;21.20;46.20;;;;;;5794748;24;20172;-86
2022/09/05 14:54:50;;;;;;;;;;;;;;;;;;;;;
2022/09/05 14:57:34;;;;;;;4.57;1.35;;;21.20;46.20;;;;;;5931650;24;20183;-84
2022/09/05 15:00:16;;;;;;;5.53;1.40;;;21.10;46.40;;;;;;5958562;24;20186;-84
2022/09/05 15:02:45;;;;;;;6.57;1.10;;;21.20;46.30;;;;;;5957339;24;20195;-83
2022/09/05 15:09:08;;;;;;;5.43;1.30;;;21.20;46.20;;;;;;5899835;24;20165;-83
2022/09/05 15:11:34;;;;;;;3.15;1.25;;;21.20;45.80;;;;;;5910575;24;20163;-84
2022/09/05 15:14:04;;;;;;;3.67;1.30;;;21.30;46.00;;;;;;5954496;24;20592;-83
2022/09/05 15:16:44;;;;;;;11.65;1.75;;;21.20;46.10;;;;;;5921668;24;20772;-84
2022/09/05 15:19:51;;;;;;;9.77;1.60;;;21.20;45.70;;;;;;5922172;24;20257;-85
2022/09/05 15:22:26;;;;;;;5.60;1.25;;;21.30;46.20;;;;;;5954764;24;20171;-83
2022/09/05 15:25:22;;;;;;;8.43;1.48;;;21.20;46.60;;;;;;5888770;24;20159;-85
2022/09/05 15:27:57;;;;;;;9.15;1.42;;;21.20;46.70;;;;;;5956829;24;20511;-82
2022/09/05 15:31:05;;;;;;;9.52;1.77;;;21.30;46.80;;;;;;5922930;24;20511;-84
2022/09/05 15:34:25;;;;;;;8.70;1.73;;;21.20;46.70;;;;;;5892512;24;20157;-84
2022/09/05 15:36:53;;;;;;;8.00;1.50;;;21.30;46.90;;;;;;5871224;24;20158;-83
2022/09/05 15:39:27;;;;;;;6.75;1.45;;;21.30;46.70;;;;;;5865819;24;20163;-84
2022/09/05 15:42:19;;;;;;;12.35;1.52;;;21.30;46.70;;;;;;5984488;23;20670;-83
2022/09/05 15:45:03;;;;;;;11.93;1.60;;;21.30;47.10;;;;;;5964957;23;20155;-86
2022/09/05 15:48:28;;;;;;;6.35;1.42;;;21.30;46.60;;;;;;5943080;23;20211;-87
2022/09/05 16:12:14;;;;;;;7.07;1.60;;;21.40;46.80;;;;;;5882866;24;20181;-83
2022/09/05 16:15:05;;;;;;;8.23;1.38;;;21.40;46.80;;;;;;5848404;24;20174;-83
2022/09/05 16:17:45;;;;;;;11.00;1.73;;;21.50;46.60;;;;;;5813849;24;20197;-84
2022/09/05 16:20:46;;;;;;;9.63;1.50;;;21.50;46.80;;;;;;5945188;23;20161;-84
2022/09/05 16:23:24;;;;;;;12.82;1.58;;;21.40;46.90;;;;;;5975069;23;20162;-82
2022/09/05 16:26:13;;;;;;;18.00;1.83;;;21.40;46.90;;;;;;5978570;23;20159;-82
2022/09/05 16:28:57;;;;;;;10.23;1.50;;;21.30;46.60;;;;;;5956097;24;20319;-82
2022/09/05 16:32:06;;;;;;;13.32;1.85;;;21.30;46.70;;;;;;5931569;24;20516;-83
2022/09/05 16:34:48;;;;;;;17.48;1.92;;;21.30;46.80;;;;;;5986951;23;20556;-83
2022/09/05 16:37:27;;;;;;;17.90;2.03;;;21.30;47.00;;;;;;5943149;24;20187;-83
2022/09/05 16:40:00;;;;;;;10.07;1.90;;;21.20;46.80;;;;;;5964007;24;20160;-82
2022/09/05 16:42:42;;;;;;;8.70;1.55;;;21.20;46.70;;;;;;5979034;23;20158;-83
2022/09/05 16:45:22;;;;;;;6.35;1.42;;;21.20;46.80;;;;;;5945325;24;20303;-82
2022/09/05 16:48:06;;;;;;;10.13;1.30;;;21.20;46.80;;;;;;5915259;24;20208;-82
2022/09/05 16:50:56;;;;;;;6.22;1.25;;;21.20;46.70;;;;;;5917213;24;20161;-83
2022/09/05 16:53:38;;;;;;;5.10;1.20;;;21.20;46.80;;;;;;5883093;24;20165;-84
2022/09/05 16:56:18;;;;;;;8.85;1.75;;;21.20;46.70;;;;;;5901080;24;20163;-85
2022/09/05 16:58:50;;;;;;;8.98;1.40;;;21.20;46.70;;;;;;5931942;24;20282;-83
2022/09/05 17:01:23;;;;;;;21.95;1.92;;;21.10;46.70;;;;;;5932545;24;20183;-83
2022/09/05 17:04:05;;;;;;;7.85;1.40;;;21.10;46.90;;;;;;5909275;24;20168;-82
2022/09/05 17:06:40;;;;;;;6.70;1.73;;;21.10;46.80;;;;;;5906756;24;20165;-82
2022/09/05 17:09:20;;;;;;;6.00;1.20;;;21.10;46.80;;;;;;5912066;24;20171;-83
2022/09/05 17:11:51;;;;;;;5.63;1.35;;;21.10;46.50;;;;;;5886440;24;20185;-83
2022/09/05 17:14:19;;;;;;;6.95;1.00;;;21.10;46.70;;;;;;5913449;24;20265;-83
2022/09/05 17:16:52;;;;;;;5.85;1.10;;;21.10;46.50;;;;;;5908275;24;20443;-84
2022/09/05 17:19:24;;;;;;;7.28;1.27;;;21.10;46.70;;;;;;5885789;24;20165;-83
2022/09/05 17:22:31;;;;;;;7.82;1.33;;;21.10;46.80;;;;;;5963215;23;20587;-85
2022/09/05 17:25:03;;;;;;;7.72;1.88;;;21.10;46.70;;;;;;6018205;23;20605;-81
2022/09/05 17:27:30;;;;;;;4.65;1.30;;;21.10;46.90;;;;;;6000160;23;20213;-82
2022/09/05 17:30:02;;;;;;;10.00;1.45;;;21.10;46.80;;;;;;6053379;23;20200;-84
2022/09/05 17:32:39;;;;;;;11.30;1.65;;;21.10;46.90;;;;;;5999570;23;20162;-82
2022/09/05 17:35:41;;;;;;;7.22;1.70;;;21.10;46.90;;;;;;6023982;23;20161;-82
2022/09/05 17:38:36;;;;;;;6.20;1.20;;;21.10;46.90;;;;;;5983066;23;20193;-84
2022/09/05 17:41:21;;;;;;;7.25;1.20;;;21.10;46.80;;;;;;5997586;23;20177;-82
2022/09/05 17:44:06;;;;;;;5.65;1.30;;;21.10;46.80;;;;;;6051787;23;20150;-82
2022/09/05 17:46:50;;;;;;;3.50;1.02;;;21.10;46.90;;;;;;6029255;23;20154;-82
2022/09/05 17:49:43;;;;;;;3.88;1.25;;;21.10;46.90;;;;;;6052778;23;20165;-82
2022/09/05 17:52:22;;;;;;;5.82;1.20;;;21.10;47.00;;;;;;6005346;23;20179;-83
2022/09/05 17:54:52;;;;;;;1.98;1.20;;;21.00;47.00;;;;;;6052585;23;20243;-81
2022/09/05 17:57:38;;;;;;;4.00;1.17;;;21.00;47.00;;;;;;6028259;23;20205;-81
2022/09/05 18:00:37;;;;;;;2.88;1.23;;;21.00;47.10;;;;;;6052485;23;20218;-81